Terminal Aerodrome Forecast
Issued by NWS Pueblo, CO

Home | Current Version | Previous Version | Text Only | Print | Product List | Glossary On
Versions: 1 2 3 4 5 6 7 8 9 10 11 12 13 14 15 16 17 18 19 20 21 22 23 24 25 26
000
FTUS45 KPUB 290537
TAFPUB
TAF
KPUB 290537Z 2906/3006 08006KT P6SM -SHRA SCT010 OVC020
      TEMPO 2906/2908 06012KT 3SM -SHRA BR OVC010
     FM290800 03012G22KT P6SM VCSH SCT020 BKN040
     FM291600 01018G28KT P6SM SCT040 BKN090
     FM292000 35018G28KT P6SM FEW100 SCT200
     FM300100 33008KT P6SM FEW200=

USA.gov is the U.S. government's official web portal to all federal, state and local government web resources and services.